AXCGGARGarmin  id=247  GPS 72 Software Version 2.50|2140330771
HFDTE230614
HFPLTPilot:UNREGISTERED
HFTZOTimezone:2
HFSITSite:
HPGTYGliderType:
HPGIDGliderID:
HFDTM100DATUM:WGS-1984
HFCIDCOMPETITIONID:
HFCCLCOMPETITIONCLASS:
LXCG     ICON:C:\Program Files\CompeGPS\symbols\IconsPlay\cronos.ico
LXCG     COLOR:119000000
I00
B1659393754110N00104181WA0000000035
B1659453754111N00104180WA0000000035
B1659513754046N00104250WA0000000386
B1659573754042N00104250WA0000000383
B1700033754042N00104249WA0000000383
B1700093754042N00104249WA0000000384
B1700153754042N00104249WA0000000384
B1700213754041N00104249WA0000000384
B1700273754041N00104249WA0000000385
B1700283754041N00104249WA0000000385
B1703293754058N00104237WA0000000336
B1703353754052N00104239WA0000000336
B1703413754051N00104243WA0000000350
B1703473754047N00104246WA0000000364
B1703533754046N00104246WA0000000367
B1703593754046N00104246WA0000000368
B1704053754047N00104247WA0000000368
B1706473754066N00104236WA0000000319
B1706533754063N00104239WA0000000319
B1706593754046N00104250WA0000000393
B1707053754044N00104249WA0000000390
B1707113754043N00104249WA0000000390
B1707173754043N00104249WA0000000390
B1707233754043N00104249WA0000000389
B1707293754043N00104249WA0000000389
B1707353754043N00104249WA0000000389
B1707413754044N00104249WA0000000388
B1707473754044N00104249WA0000000388
B1707533754043N00104249WA0000000389
B1707593754043N00104249WA0000000389
B1708053754043N00104249WA0000000389
B1708113754043N00104249WA0000000388
B1708173754043N00104249WA0000000389
B1708233754043N00104250WA0000000388
B1708293754043N00104250WA0000000389
B1708353754042N00104250WA0000000389
B1708413754041N00104249WA0000000390
B1708473754042N00104249WA0000000389
B1708533754044N00104249WA0000000388
B1708593754048N00104251WA0000000389
B1709053754049N00104250WA0000000390
B1709113754051N00104250WA0000000391
B1709173754052N00104248WA0000000391
B1709233754038N00104279WA0000000391
B1709293754038N00104320WA0000000391
B1709353754028N00104356WA0000000391
B1709413753999N00104352WA0000000391
B1709473753992N00104335WA0000000391
B1709533754010N00104296WA0000000393
B1709593754015N00104291WA0000000395
B1710053753999N00104311WA0000000396
B1710113753987N00104339WA0000000397
B1710173753975N00104325WA0000000412
B1710233753969N00104311WA0000000421
B1710293753959N00104309WA0000000425
B1710353753957N00104355WA0000000423
B1710413753967N00104413WA0000000423
B1710473753957N00104452WA0000000429
B1710533753936N00104474WA0000000437
B1710593753919N00104498WA0000000453
B1711053753908N00104506WA0000000468
B1711113753895N00104502WA0000000476
B1711173753882N00104526WA0000000476
B1711233753876N00104570WA0000000478
B1711293753872N00104616WA0000000483
B1711353753864N00104657WA0000000490
B1711413753851N00104692WA0000000495
B1711473753837N00104727WA0000000501
B1711533753827N00104723WA0000000499
B1711593753835N00104703WA0000000501
B1712053753844N00104684WA0000000508
B1712113753830N00104700WA0000000509
B1712173753825N00104747WA0000000509
B1712233753812N00104747WA0000000511
B1712293753823N00104727WA0000000513
B1712353753837N00104708WA0000000520
B1712413753836N00104694WA0000000523
B1712473753827N00104738WA0000000523
B1712533753820N00104787WA0000000527
B1712593753808N00104833WA0000000524
B1713053753792N00104839WA0000000525
B1713113753789N00104822WA0000000538
B1713173753788N00104803WA0000000549
B1713233753792N00104780WA0000000543
B1713293753806N00104759WA0000000540
B1713353753818N00104739WA0000000541
B1713413753806N00104739WA0000000538
B1713473753800N00104789WA0000000537
B1713533753791N00104838WA0000000534
B1713593753779N00104885WA0000000533
B1714053753756N00104901WA0000000535
B1714113753745N00104889WA0000000541
B1714173753745N00104869WA0000000545
B1714233753746N00104845WA0000000545
B1714293753749N00104825WA0000000542
B1714353753750N00104809WA0000000544
B1714413753736N00104807WA0000000545
B1714473753738N00104856WA0000000546
B1714533753763N00104859WA0000000545
B1714593753760N00104845WA0000000547
B1715053753750N00104839WA0000000549
B1715113753732N00104837WA0000000550
B1715173753727N00104821WA0000000550
B1715233753727N00104805WA0000000550
B1715293753713N00104801WA0000000551
B1715353753700N00104848WA0000000548
B1715413753703N00104908WA0000000546
B1715473753704N00104966WA0000000548
B1715533753704N00105019WA0000000552
B1715593753695N00105070WA0000000552
B1716053753679N00105110WA0000000563
B1716113753659N00105120WA0000000577
B1716173753648N00105110WA0000000575
B1716233753635N00105104WA0000000570
B1716293753613N00105124WA0000000564
B1716353753590N00105155WA0000000559
B1716413753567N00105171WA0000000559
B1716473753562N00105161WA0000000555
B1716533753570N00105143WA0000000554
B1716593753581N00105122WA0000000556
B1717053753588N00105100WA0000000553
B1717113753596N00105076WA0000000553
B1717173753600N00105054WA0000000552
B1717233753610N00105028WA0000000547
B1717293753623N00105004WA0000000541
B1717353753636N00104977WA0000000528
B1717413753650N00104943WA0000000521
B1717473753670N00104916WA0000000514
B1717533753693N00104891WA0000000506
B1717593753719N00104868WA0000000505
B1718053753742N00104847WA0000000512
B1718113753762N00104831WA0000000517
B1718173753768N00104810WA0000000524
B1718233753773N00104791WA0000000522
B1718293753783N00104771WA0000000522
B1718353753786N00104754WA0000000522
B1718413753779N00104787WA0000000526
B1718473753811N00104807WA0000000530
B1718533753808N00104793WA0000000539
B1718593753805N00104778WA0000000544
B1719053753806N00104756WA0000000547
B1719113753807N00104735WA0000000547
B1719173753809N00104713WA0000000549
B1719233753811N00104690WA0000000549
B1719293753815N00104665WA0000000550
B1719353753820N00104641WA0000000548
B1719413753826N00104618WA0000000544
B1719473753830N00104597WA0000000544
B1719533753833N00104572WA0000000542
B1719593753835N00104546WA0000000541
B1720053753832N00104521WA0000000541
B1720113753830N00104497WA0000000539
B1720173753830N00104471WA0000000541
B1720233753834N00104446WA0000000537
B1720293753844N00104419WA0000000530
B1720353753854N00104393WA0000000526
B1720413753862N00104367WA0000000522
B1720473753868N00104343WA0000000518
B1720533753875N00104318WA0000000511
B1720593753885N00104293WA0000000505
B1721053753902N00104267WA0000000501
B1721113753920N00104245WA0000000510
B1721173753919N00104229WA0000000517
B1721233753912N00104268WA0000000521
B1721293753946N00104300WA0000000526
B1721353753965N00104281WA0000000537
B1721413753965N00104257WA0000000547
B1721473753967N00104237WA0000000558
B1721533753952N00104244WA0000000564
B1721593753956N00104289WA0000000570
B1722053753987N00104300WA0000000573
B1722113753994N00104280WA0000000577
B1722173753995N00104259WA0000000584
B1722233753996N00104233WA0000000577
B1722293754001N00104206WA0000000570
B1722353754008N00104178WA0000000563
B1722413754015N00104149WA0000000554
B1722473754021N00104124WA0000000550
B1722533754025N00104101WA0000000551
B1722593754018N00104087WA0000000553
B1723053754011N00104126WA0000000550
B1723113754045N00104153WA0000000549
B1723173754061N00104129WA0000000553
B1723233754066N00104104WA0000000554
B1723293754069N00104082WA0000000549
B1723353754076N00104056WA0000000545
B1723413754088N00104030WA0000000542
B1723473754104N00104002WA0000000533
B1723533754120N00103974WA0000000524
B1723593754138N00103948WA0000000516
B1724053754151N00103925WA0000000512
B1724113754156N00103903WA0000000516
B1724173754164N00103875WA0000000521
B1724233754172N00103849WA0000000529
B1724293754163N00103843WA0000000518
B1724353754146N00103871WA0000000509
B1724413754134N00103910WA0000000499
B1724473754119N00103949WA0000000494
B1724533754101N00103987WA0000000487
B1724593754088N00104025WA0000000481
B1725053754080N00104070WA0000000478
B1725113754072N00104111WA0000000476
B1725173754060N00104147WA0000000475
B1725233754045N00104182WA0000000472
B1725293754033N00104217WA0000000477
B1725353754018N00104225WA0000000481
B1725413754010N00104212WA0000000481
B1725473754024N00104190WA0000000477
B1725533754049N00104169WA0000000471
B1725593754066N00104144WA0000000463
B1726053754051N00104153WA0000000452
B1726113754047N00104197WA0000000450
B1726173754037N00104236WA0000000443
B1726233754024N00104275WA0000000440
B1726293754015N00104312WA0000000442
B1726353753998N00104345WA0000000444
B1726413753983N00104384WA0000000442
B1726473753967N00104422WA0000000446
B1726533753947N00104454WA0000000449
B1726593753928N00104493WA0000000453
B1727053753917N00104538WA0000000457
B1727113753900N00104544WA0000000461
B1727173753913N00104524WA0000000463
B1727233753932N00104506WA0000000465
B1727293753947N00104484WA0000000463
B1727353753955N00104461WA0000000461
B1727413753963N00104436WA0000000461
B1727473753974N00104414WA0000000458
B1727533753960N00104425WA0000000452
B1727593753950N00104465WA0000000447
B1728053753934N00104498WA0000000450
B1728113753915N00104529WA0000000455
B1728173753897N00104555WA0000000463
B1728233753887N00104598WA0000000465
B1728293753871N00104633WA0000000468
B1728353753855N00104664WA0000000473
B1728413753840N00104706WA0000000469
B1728473753824N00104749WA0000000466
B1728533753814N00104737WA0000000463
B1728593753819N00104712WA0000000461
B1729053753835N00104687WA0000000461
B1729113753852N00104660WA0000000464
B1729173753868N00104638WA0000000468
B1729233753885N00104614WA0000000471
B1729293753891N00104595WA0000000477
B1729353753875N00104585WA0000000482
B1729413753869N00104563WA0000000493
B1729473753865N00104546WA0000000505
B1729533753860N00104533WA0000000517
B1729593753862N00104515WA0000000522
B1730053753847N00104531WA0000000519
B1730113753867N00104576WA0000000516
B1730173753891N00104564WA0000000519
B1730233753905N00104551WA0000000525
B1730293753911N00104533WA0000000525
B1730353753916N00104510WA0000000526
B1730413753915N00104489WA0000000522
B1730473753928N00104463WA0000000515
B1730533753943N00104437WA0000000514
B1730593753954N00104412WA0000000506
B1731053753960N00104387WA0000000506
B1731113753965N00104364WA0000000501
B1731173753971N00104337WA0000000500
B1731233753974N00104312WA0000000495
B1731293753979N00104291WA0000000494
B1731353753985N00104265WA0000000492
B1731413753990N00104243WA0000000490
B1731473753997N00104218WA0000000494
B1731533754000N00104197WA0000000501
B1731593754001N00104176WA0000000502
B1732053754002N00104211WA0000000506
B1732113754033N00104205WA0000000508
B1732173754042N00104180WA0000000518
B1732233754045N00104163WA0000000527
B1732293754046N00104148WA0000000533
B1732353754046N00104129WA0000000537
B1732413754044N00104107WA0000000538
B1732473754038N00104089WA0000000533
B1732533754032N00104067WA0000000525
B1732593754041N00104041WA0000000512
B1733053754058N00104019WA0000000507
B1733113754070N00103997WA0000000506
B1733173754063N00103979WA0000000506
B1733233754060N00104017WA0000000505
B1733293754057N00104060WA0000000507
B1733353754045N00104050WA0000000507
B1733413754049N00104026WA0000000509
B1733473754061N00104002WA0000000505
B1733533754076N00103982WA0000000505
B1733593754095N00103960WA0000000504
B1734053754114N00103940WA0000000508
B1734113754114N00103934WA0000000510
B1734173754097N00103960WA0000000515
B1734233754088N00103953WA0000000517
B1734293754085N00103939WA0000000518
B1734353754073N00103934WA0000000520
B1734413754071N00103917WA0000000521
B1734473754074N00103899WA0000000524
B1734533754092N00103886WA0000000530
B1734593754120N00103916WA0000000526
B1735053754104N00103950WA0000000530
B1735113754085N00103961WA0000000531
B1735173754075N00103952WA0000000534
B1735233754096N00103943WA0000000537
B1735293754118N00103988WA0000000537
B1735353754102N00104019WA0000000541
B1735413754090N00104019WA0000000542
B1735473754089N00104001WA0000000541
B1735533754079N00103991WA0000000542
B1735593754064N00103981WA0000000541
B1736053754084N00103961WA0000000538
B1736113754112N00103997WA0000000530
B1736173754092N00104026WA0000000532
B1736233754073N00104029WA0000000529
B1736293754056N00104021WA0000000527
B1736353754039N00104009WA0000000523
B1736413754024N00103995WA0000000517
B1736473754010N00103980WA0000000509
B1736533754001N00103958WA0000000499
B1736593753998N00103931WA0000000491
B1737053753998N00103904WA0000000485
B1737113754004N00103877WA0000000473
B1737173754038N00103876WA0000000462
B1737233754061N00103923WA0000000450
B1737293754074N00103977WA0000000441
B1737353754097N00104028WA0000000437
B1737413754105N00104080WA0000000434
B1737473754088N00104113WA0000000434
B1737533754073N00104151WA0000000435
B1737593754060N00104194WA0000000434
B1738053754045N00104235WA0000000435
B1738113754031N00104275WA0000000437
B1738173754013N00104303WA0000000444
B1738233753997N00104340WA0000000447
B1738293753984N00104381WA0000000450
B1738353753971N00104422WA0000000450
B1738413753957N00104462WA0000000448
B1738473753941N00104500WA0000000450
B1738533753923N00104535WA0000000453
B1738593753903N00104549WA0000000453
B1739053753913N00104524WA0000000452
B1739113753932N00104505WA0000000454
B1739173753946N00104484WA0000000457
B1739233753955N00104461WA0000000457
B1739293753965N00104437WA0000000458
B1739353753978N00104412WA0000000453
B1739413753989N00104386WA0000000452
B1739473753999N00104363WA0000000451
B1739533754010N00104338WA0000000448
B1739593754015N00104316WA0000000445
B1740053754021N00104288WA0000000444
B1740113754028N00104260WA0000000442
B1740173754037N00104231WA0000000441
B1740233754044N00104202WA0000000442
B1740293754055N00104175WA0000000439
B1740353754064N00104152WA0000000433
B1740413754075N00104127WA0000000429
B1740473754088N00104100WA0000000428
B1740533754096N00104075WA0000000430
B1740593754105N00104048WA0000000432
B1741053754116N00104023WA0000000434
B1741113754120N00103998WA0000000438
B1741173754134N00103974WA0000000443
B1741233754147N00103947WA0000000444
B1741293754138N00103934WA0000000443
B1741353754125N00103968WA0000000441
B1741413754117N00104014WA0000000433
B1741473754109N00104060WA0000000429
B1741533754093N00104099WA0000000419
B1741593754079N00104142WA0000000421
B1742053754062N00104172WA0000000425
B1742113754045N00104163WA0000000429
B1742173754048N00104137WA0000000429
B1742233754048N00104112WA0000000432
B1742293754033N00104133WA0000000430
B1742353754060N00104154WA0000000428
B1742413754072N00104127WA0000000433
B1742473754081N00104098WA0000000436
B1742533754090N00104071WA0000000436
B1742593754099N00104046WA0000000439
B1743053754079N00104032WA0000000443
B1743113754060N00104022WA0000000447
B1743173754081N00104013WA0000000438
B1743233754098N00104055WA0000000435
B1743293754084N00104097WA0000000438
B1743353754063N00104119WA0000000441
B1743413754052N00104101WA0000000443
B1743473754067N00104083WA0000000438
B1743533754090N00104069WA0000000432
B1743593754106N00104052WA0000000432
B1744053754117N00104032WA0000000433
B1744113754125N00104011WA0000000434
B1744173754136N00103990WA0000000426
B1744233754139N00103966WA0000000425
B1744293754120N00103960WA0000000424
B1744353754107N00104003WA0000000420
B1744413754110N00104052WA0000000415
B1744473754098N00104102WA0000000412
B1744533754079N00104145WA0000000413
B1744593754063N00104187WA0000000416
B1745053754050N00104227WA0000000417
B1745113754036N00104265WA0000000416
B1745173754019N00104303WA0000000414
B1745233753998N00104328WA0000000419
B1745293753997N00104305WA0000000419
B1745353754020N00104285WA0000000413
B1745413754036N00104258WA0000000415
B1745473754046N00104232WA0000000416
B1745533754055N00104207WA0000000417
B1745593754065N00104184WA0000000414
B1746053754072N00104159WA0000000413
B1746113754081N00104138WA0000000411
B1746173754087N00104119WA0000000411
B1746233754093N00104098WA0000000409
B1746293754101N00104077WA0000000408
B1746353754112N00104057WA0000000409
B1746413754121N00104036WA0000000411
B1746473754129N00104013WA0000000411
B1746533754130N00103993WA0000000410
B1746593754115N00104020WA0000000404
B1747053754116N00104066WA0000000402
B1747113754098N00104101WA0000000399
B1747173754082N00104140WA0000000395
B1747233754067N00104184WA0000000394
B1747293754049N00104226WA0000000395
B1747353754033N00104268WA0000000396
B1747413754014N00104301WA0000000401
B1747473753992N00104295WA0000000397
B1747533753968N00104275WA0000000397
B1747593753946N00104256WA0000000394
B1748053753927N00104234WA0000000392
B1748113753931N00104214WA0000000392
B1748173753936N00104191WA0000000384
B1748233753932N00104161WA0000000380
B1748293753926N00104132WA0000000377
B1748353753920N00104102WA0000000376
B1748413753914N00104070WA0000000372
B1748473753915N00104039WA0000000359
B1748533753929N00104018WA0000000353
B1748593753943N00103995WA0000000348
B1749053753937N00103975WA0000000341
B1749113753914N00103977WA0000000336
B1749173753929N00103954WA0000000337
B1749233753917N00103952WA0000000337
B1749293753906N00103944WA0000000330
B1749353753899N00103928WA0000000319
LXCG     VERSION:5.7
GAA23DE95C5432EADC0A64B5434FE3E9C86206FF1577D3A0B0FF05B7013D2E94857912
GB0FF11BFDB5C020E4A43946E7A61CA29492B14669CEFD7ED1F9041C32E73DAB44F6
GD9A1B8F00078213812D96088AEC393EFACBE906BD25511B43371ADFF8FC53EB8595
G73B47B2078ECA59C25DD8E26CA7BFEF4DDD9ADE17B472016B0D8A14D28747